sensor_id;sensor_type;location;lat;lon;timestamp;pressure;altitude;pressure_sealevel;temperature;humidity
58757;BME280;44527;47.460;19.016;2023-01-09T00:01:53;99683.25;;;5.88;100.00
58757;BME280;44527;47.460;19.016;2023-01-09T00:04:55;99684.59;;;5.95;100.00
58757;BME280;44527;47.460;19.016;2023-01-09T00:07:57;99679.41;;;5.95;100.00
58757;BME280;44527;47.460;19.016;2023-01-09T00:11:00;99683.31;;;6.02;100.00
58757;BME280;44527;47.460;19.016;2023-01-09T00:14:03;99688.09;;;6.10;100.00
58757;BME280;44527;47.460;19.016;2023-01-09T00:17:06;99683.75;;;6.25;100.00
58757;BME280;44527;47.460;19.016;2023-01-09T00:20:09;99679.81;;;6.17;100.00
58757;BME280;44527;47.460;19.016;2023-01-09T00:23:12;99678.84;;;6.34;100.00
58757;BME280;44527;47.460;19.016;2023-01-09T00:26:17;99674.91;;;6.27;100.00
58757;BME280;44527;47.460;19.016;2023-01-09T00:29:20;99678.81;;;6.20;100.00
58757;BME280;44527;47.460;19.016;2023-01-09T00:32:22;99679.16;;;6.14;100.00
58757;BME280;44527;47.460;19.016;2023-01-09T00:35:26;99676.16;;;6.06;100.00
58757;BME280;44527;47.460;19.016;2023-01-09T00:38:29;99671.63;;;6.09;100.00
58757;BME280;44527;47.460;19.016;2023-01-09T00:41:42;99663.81;;;6.24;100.00
58757;BME280;44527;47.460;19.016;2023-01-09T00:44:50;99663.94;;;6.22;100.00
58757;BME280;44527;47.460;19.016;2023-01-09T00:47:57;99657.78;;;6.23;100.00
58757;BME280;44527;47.460;19.016;2023-01-09T00:51:00;99663.00;;;6.23;100.00
58757;BME280;44527;47.460;19.016;2023-01-09T00:54:03;99661.03;;;6.27;100.00
58757;BME280;44527;47.460;19.016;2023-01-09T00:57:06;99659.72;;;6.19;100.00
58757;BME280;44527;47.460;19.016;2023-01-09T01:00:09;99654.22;;;6.24;100.00
58757;BME280;44527;47.460;19.016;2023-01-09T01:03:12;99648.47;;;6.33;100.00
58757;BME280;44527;47.460;19.016;2023-01-09T01:06:14;99656.88;;;6.53;100.00
58757;BME280;44527;47.460;19.016;2023-01-09T01:09:35;99642.34;;;6.34;100.00
58757;BME280;44527;47.460;19.016;2023-01-09T01:12:39;99635.81;;;6.27;100.00
58757;BME280;44527;47.460;19.016;2023-01-09T01:15:44;99640.94;;;6.29;100.00
58757;BME280;44527;47.460;19.016;2023-01-09T01:18:47;99631.34;;;6.29;100.00
58757;BME280;44527;47.460;19.016;2023-01-09T01:21:50;99630.22;;;6.33;100.00
58757;BME280;44527;47.460;19.016;2023-01-09T01:24:52;99630.22;;;6.33;100.00
58757;BME280;44527;47.460;19.016;2023-01-09T01:27:54;99633.53;;;6.37;100.00
58757;BME280;44527;47.460;19.016;2023-01-09T01:30:57;99632.94;;;6.32;100.00
58757;BME280;44527;47.460;19.016;2023-01-09T01:33:59;99634.53;;;6.34;100.00
58757;BME280;44527;47.460;19.016;2023-01-09T01:37:02;99627.34;;;6.24;100.00
58757;BME280;44527;47.460;19.016;2023-01-09T01:40:06;99615.25;;;6.22;100.00
58757;BME280;44527;47.460;19.016;2023-01-09T01:43:11;99611.25;;;6.31;100.00
58757;BME280;44527;47.460;19.016;2023-01-09T01:46:17;99611.81;;;6.22;100.00
58757;BME280;44527;47.460;19.016;2023-01-09T01:49:20;99609.56;;;6.30;100.00
58757;BME280;44527;47.460;19.016;2023-01-09T01:52:23;99606.13;;;6.44;100.00
58757;BME280;44527;47.460;19.016;2023-01-09T01:55:26;99599.41;;;6.54;100.00
58757;BME280;44527;47.460;19.016;2023-01-09T01:58:29;99598.41;;;6.42;100.00
58757;BME280;44527;47.460;19.016;2023-01-09T02:01:32;99594.41;;;6.65;100.00
58757;BME280;44527;47.460;19.016;2023-01-09T02:04:37;99586.75;;;6.77;100.00
58757;BME280;44527;47.460;19.016;2023-01-09T02:07:41;99589.13;;;6.94;100.00
58757;BME280;44527;47.460;19.016;2023-01-09T02:10:43;99581.28;;;6.94;100.00
58757;BME280;44527;47.460;19.016;2023-01-09T02:13:46;99577.28;;;7.03;100.00
58757;BME280;44527;47.460;19.016;2023-01-09T02:20:38;99562.41;;;7.18;100.00
58757;BME280;44527;47.460;19.016;2023-01-09T02:24:06;99554.03;;;7.12;100.00
58757;BME280;44527;47.460;19.016;2023-01-09T02:30:51;99556.88;;;7.22;100.00
58757;BME280;44527;47.460;19.016;2023-01-09T02:43:19;99537.59;;;7.25;100.00
58757;BME280;44527;47.460;19.016;2023-01-09T02:46:22;99541.59;;;7.43;100.00
58757;BME280;44527;47.460;19.016;2023-01-09T02:49:24;99537.06;;;7.59;100.00
58757;BME280;44527;47.460;19.016;2023-01-09T02:55:49;99536.03;;;7.75;100.00
58757;BME280;44527;47.460;19.016;2023-01-09T03:02:34;99522.44;;;7.57;100.00
58757;BME280;44527;47.460;19.016;2023-01-09T03:08:46;99517.50;;;7.52;100.00
58757;BME280;44527;47.460;19.016;2023-01-09T03:11:57;99510.69;;;7.50;100.00
58757;BME280;44527;47.460;19.016;2023-01-09T03:15:01;99503.81;;;7.49;100.00
58757;BME280;44527;47.460;19.016;2023-01-09T03:18:08;99509.22;;;7.46;100.00
58757;BME280;44527;47.460;19.016;2023-01-09T03:21:11;99509.03;;;7.62;100.00
58757;BME280;44527;47.460;19.016;2023-01-09T03:24:14;99509.66;;;7.52;100.00
58757;BME280;44527;47.460;19.016;2023-01-09T03:27:17;99504.44;;;7.52;100.00
58757;BME280;44527;47.460;19.016;2023-01-09T03:30:19;99497.44;;;7.53;100.00
58757;BME280;44527;47.460;19.016;2023-01-09T03:33:22;99499.84;;;7.56;100.00
58757;BME280;44527;47.460;19.016;2023-01-09T03:36:24;99501.53;;;7.57;100.00
58757;BME280;44527;47.460;19.016;2023-01-09T03:39:27;99491.37;;;7.52;100.00
58757;BME280;44527;47.460;19.016;2023-01-09T03:42:29;99494.31;;;7.48;100.00
58757;BME280;44527;47.460;19.016;2023-01-09T03:45:41;99492.13;;;7.42;100.00
58757;BME280;44527;47.460;19.016;2023-01-09T03:48:44;99481.88;;;7.51;100.00
58757;BME280;44527;47.460;19.016;2023-01-09T03:51:46;99485.75;;;7.46;100.00
58757;BME280;44527;47.460;19.016;2023-01-09T03:54:48;99478.31;;;7.52;100.00
58757;BME280;44527;47.460;19.016;2023-01-09T03:57:50;99483.88;;;7.73;100.00
58757;BME280;44527;47.460;19.016;2023-01-09T04:01:01;99477.50;;;7.77;99.05
58757;BME280;44527;47.460;19.016;2023-01-09T04:04:05;99482.84;;;7.76;99.57
58757;BME280;44527;47.460;19.016;2023-01-09T04:07:07;99475.94;;;7.75;100.00
58757;BME280;44527;47.460;19.016;2023-01-09T04:10:10;99479.81;;;7.69;99.37
58757;BME280;44527;47.460;19.016;2023-01-09T04:13:13;99485.25;;;7.79;99.20
58757;BME280;44527;47.460;19.016;2023-01-09T04:16:16;99479.41;;;7.75;100.00
58757;BME280;44527;47.460;19.016;2023-01-09T04:19:18;99477.91;;;7.71;100.00
58757;BME280;44527;47.460;19.016;2023-01-09T04:22:20;99478.44;;;7.76;98.46
58757;BME280;44527;47.460;19.016;2023-01-09T04:25:22;99479.91;;;7.68;99.98
58757;BME280;44527;47.460;19.016;2023-01-09T04:28:25;99473.00;;;7.79;98.39
58757;BME280;44527;47.460;19.016;2023-01-09T04:31:27;99487.22;;;7.63;99.72
58757;BME280;44527;47.460;19.016;2023-01-09T04:34:30;99485.94;;;7.55;100.00
58757;BME280;44527;47.460;19.016;2023-01-09T04:37:32;99481.81;;;7.66;100.00
58757;BME280;44527;47.460;19.016;2023-01-09T04:40:34;99484.81;;;7.59;100.00
58757;BME280;44527;47.460;19.016;2023-01-09T04:43:36;99487.66;;;7.56;100.00
58757;BME280;44527;47.460;19.016;2023-01-09T04:46:39;99490.87;;;7.60;100.00
58757;BME280;44527;47.460;19.016;2023-01-09T04:49:42;99486.78;;;7.56;100.00
58757;BME280;44527;47.460;19.016;2023-01-09T04:52:44;99483.66;;;7.64;100.00
58757;BME280;44527;47.460;19.016;2023-01-09T04:55:47;99485.75;;;7.58;100.00
58757;BME280;44527;47.460;19.016;2023-01-09T04:58:49;99480.44;;;7.47;100.00
58757;BME280;44527;47.460;19.016;2023-01-09T05:01:52;99483.03;;;7.47;100.00
58757;BME280;44527;47.460;19.016;2023-01-09T05:04:56;99484.06;;;7.45;100.00
58757;BME280;44527;47.460;19.016;2023-01-09T05:07:58;99481.34;;;7.46;100.00
58757;BME280;44527;47.460;19.016;2023-01-09T05:11:00;99482.09;;;7.48;100.00
58757;BME280;44527;47.460;19.016;2023-01-09T05:14:03;99480.94;;;7.40;100.00
58757;BME280;44527;47.460;19.016;2023-01-09T05:17:05;99478.44;;;7.51;100.00
58757;BME280;44527;47.460;19.016;2023-01-09T05:20:08;99477.63;;;7.50;100.00
58757;BME280;44527;47.460;19.016;2023-01-09T05:23:10;99472.88;;;7.43;100.00
58757;BME280;44527;47.460;19.016;2023-01-09T05:26:13;99467.56;;;7.44;100.00
58757;BME280;44527;47.460;19.016;2023-01-09T05:29:15;99463.72;;;7.63;100.00
58757;BME280;44527;47.460;19.016;2023-01-09T05:32:18;99471.34;;;7.78;100.00
58757;BME280;44527;47.460;19.016;2023-01-09T05:35:21;99463.19;;;7.70;100.00
58757;BME280;44527;47.460;19.016;2023-01-09T05:38:23;99459.34;;;7.50;100.00
58757;BME280;44527;47.460;19.016;2023-01-09T05:41:25;99458.38;;;7.64;100.00
58757;BME280;44527;47.460;19.016;2023-01-09T05:44:28;99459.53;;;7.60;100.00
58757;BME280;44527;47.460;19.016;2023-01-09T05:47:31;99463.19;;;7.70;100.00
58757;BME280;44527;47.460;19.016;2023-01-09T05:50:33;99463.81;;;7.74;100.00
58757;BME280;44527;47.460;19.016;2023-01-09T05:53:36;99473.34;;;7.88;100.00
58757;BME280;44527;47.460;19.016;2023-01-09T05:56:38;99472.81;;;7.82;100.00
58757;BME280;44527;47.460;19.016;2023-01-09T05:59:41;99472.81;;;7.82;100.00
58757;BME280;44527;47.460;19.016;2023-01-09T06:02:43;99468.31;;;7.85;100.00
58757;BME280;44527;47.460;19.016;2023-01-09T06:05:46;99464.66;;;7.87;98.43
58757;BME280;44527;47.460;19.016;2023-01-09T06:08:48;99468.09;;;7.88;99.42
58757;BME280;44527;47.460;19.016;2023-01-09T06:11:51;99469.78;;;7.89;97.34
58757;BME280;44527;47.460;19.016;2023-01-09T06:14:55;99465.59;;;7.86;97.74
58757;BME280;44527;47.460;19.016;2023-01-09T06:18:00;99460.87;;;8.04;95.15
58757;BME280;44527;47.460;19.016;2023-01-09T06:21:03;99466.94;;;8.04;94.09
58757;BME280;44527;47.460;19.016;2023-01-09T06:24:07;99481.91;;;7.90;95.10
58757;BME280;44527;47.460;19.016;2023-01-09T06:27:10;99478.53;;;8.00;93.10
58757;BME280;44527;47.460;19.016;2023-01-09T06:30:15;99477.28;;;8.06;94.06
58757;BME280;44527;47.460;19.016;2023-01-09T06:33:18;99487.12;;;8.02;92.21
58757;BME280;44527;47.460;19.016;2023-01-09T06:36:21;99499.25;;;8.03;92.10
58757;BME280;44527;47.460;19.016;2023-01-09T06:39:27;99494.22;;;8.00;92.48
58757;BME280;44527;47.460;19.016;2023-01-09T06:42:30;99500.00;;;7.93;94.83
58757;BME280;44527;47.460;19.016;2023-01-09T06:45:32;99494.75;;;7.93;94.12
58757;BME280;44527;47.460;19.016;2023-01-09T06:48:35;99493.91;;;7.92;95.11
58757;BME280;44527;47.460;19.016;2023-01-09T06:51:38;99487.75;;;7.93;94.01
58757;BME280;44527;47.460;19.016;2023-01-09T06:54:41;99490.78;;;8.00;93.18
58757;BME280;44527;47.460;19.016;2023-01-09T06:57:44;99486.09;;;8.05;92.20
58757;BME280;44527;47.460;19.016;2023-01-09T07:00:47;99485.97;;;7.81;93.18
58757;BME280;44527;47.460;19.016;2023-01-09T07:03:50;99481.06;;;7.76;92.30
58757;BME280;44527;47.460;19.016;2023-01-09T07:06:53;99488.69;;;7.79;91.61
58757;BME280;44527;47.460;19.016;2023-01-09T07:09:55;99491.50;;;7.76;92.14
58757;BME280;44527;47.460;19.016;2023-01-09T07:12:58;99491.50;;;7.76;92.70
58757;BME280;44527;47.460;19.016;2023-01-09T07:16:00;99481.47;;;7.70;91.85
58757;BME280;44527;47.460;19.016;2023-01-09T07:19:04;99475.41;;;7.70;91.55
58757;BME280;44527;47.460;19.016;2023-01-09T07:22:07;99486.50;;;7.73;93.88
58757;BME280;44527;47.460;19.016;2023-01-09T07:25:10;99484.22;;;7.69;90.54
58757;BME280;44527;47.460;19.016;2023-01-09T07:28:12;99482.44;;;7.69;92.54
58757;BME280;44527;47.460;19.016;2023-01-09T07:31:16;99481.88;;;7.64;93.37
58757;BME280;44527;47.460;19.016;2023-01-09T07:34:20;99483.34;;;7.68;93.44
58757;BME280;44527;47.460;19.016;2023-01-09T07:37:23;99479.06;;;7.80;94.06
58757;BME280;44527;47.460;19.016;2023-01-09T07:40:25;99466.31;;;7.88;91.99
58757;BME280;44527;47.460;19.016;2023-01-09T07:43:28;99456.03;;;8.11;90.18
58757;BME280;44527;47.460;19.016;2023-01-09T07:46:30;99467.63;;;8.19;91.87
58757;BME280;44527;47.460;19.016;2023-01-09T07:49:33;99464.53;;;8.14;95.00
58757;BME280;44527;47.460;19.016;2023-01-09T07:52:35;99469.75;;;8.14;94.31
58757;BME280;44527;47.460;19.016;2023-01-09T07:55:38;99458.00;;;8.33;89.76
58757;BME280;44527;47.460;19.016;2023-01-09T07:58:40;99459.87;;;8.31;91.59
58757;BME280;44527;47.460;19.016;2023-01-09T08:01:43;99449.94;;;8.48;92.40
58757;BME280;44527;47.460;19.016;2023-01-09T08:04:46;99449.97;;;8.60;88.36
58757;BME280;44527;47.460;19.016;2023-01-09T08:07:48;99450.97;;;8.46;88.26
58757;BME280;44527;47.460;19.016;2023-01-09T08:10:52;99461.88;;;8.27;90.91
58757;BME280;44527;47.460;19.016;2023-01-09T08:13:55;99444.19;;;8.31;91.05
58757;BME280;44527;47.460;19.016;2023-01-09T08:16:57;99449.03;;;8.24;91.11
58757;BME280;44527;47.460;19.016;2023-01-09T08:20:00;99441.72;;;8.16;91.07
58757;BME280;44527;47.460;19.016;2023-01-09T08:23:08;99444.06;;;8.08;93.21
58757;BME280;44527;47.460;19.016;2023-01-09T08:26:10;99457.66;;;7.75;97.74
58757;BME280;44527;47.460;19.016;2023-01-09T08:29:13;99473.97;;;7.66;100.00
58757;BME280;44527;47.460;19.016;2023-01-09T08:32:15;99490.91;;;7.20;100.00
58757;BME280;44527;47.460;19.016;2023-01-09T08:35:20;99465.06;;;7.55;100.00
58757;BME280;44527;47.460;19.016;2023-01-09T08:38:22;99443.88;;;7.47;100.00
58757;BME280;44527;47.460;19.016;2023-01-09T08:41:25;99450.22;;;7.30;100.00
58757;BME280;44527;47.460;19.016;2023-01-09T08:44:46;99457.97;;;7.32;100.00
58757;BME280;44527;47.460;19.016;2023-01-09T08:48:07;99465.13;;;7.28;100.00
58757;BME280;44527;47.460;19.016;2023-01-09T08:51:09;99460.56;;;7.45;100.00
58757;BME280;44527;47.460;19.016;2023-01-09T08:54:12;99474.34;;;7.47;100.00
58757;BME280;44527;47.460;19.016;2023-01-09T08:57:14;99480.72;;;7.55;100.00
58757;BME280;44527;47.460;19.016;2023-01-09T09:00:18;99455.78;;;7.64;100.00
58757;BME280;44527;47.460;19.016;2023-01-09T09:03:21;99451.50;;;7.63;100.00
58757;BME280;44527;47.460;19.016;2023-01-09T09:06:24;99452.75;;;7.45;100.00
58757;BME280;44527;47.460;19.016;2023-01-09T09:09:26;99430.06;;;7.45;100.00
58757;BME280;44527;47.460;19.016;2023-01-09T09:12:28;99437.16;;;7.43;100.00
58757;BME280;44527;47.460;19.016;2023-01-09T09:15:31;99441.75;;;7.40;100.00
58757;BME280;44527;47.460;19.016;2023-01-09T09:18:35;99432.34;;;7.37;100.00
58757;BME280;44527;47.460;19.016;2023-01-09T09:21:37;99423.47;;;7.27;100.00
58757;BME280;44527;47.460;19.016;2023-01-09T09:24:40;99430.69;;;7.23;100.00
58757;BME280;44527;47.460;19.016;2023-01-09T09:27:43;99424.63;;;7.23;100.00
58757;BME280;44527;47.460;19.016;2023-01-09T09:30:46;99422.31;;;7.05;100.00
58757;BME280;44527;47.460;19.016;2023-01-09T09:33:49;99415.03;;;7.10;100.00
58757;BME280;44527;47.460;19.016;2023-01-09T09:36:53;99415.66;;;7.14;100.00
58757;BME280;44527;47.460;19.016;2023-01-09T09:39:55;99407.50;;;7.19;100.00
58757;BME280;44527;47.460;19.016;2023-01-09T09:47:27;99413.66;;;7.18;100.00
58757;BME280;44527;47.460;19.016;2023-01-09T09:53:57;99384.00;;;7.19;100.00
58757;BME280;44527;47.460;19.016;2023-01-09T09:57:02;99399.97;;;7.01;100.00
58757;BME280;44527;47.460;19.016;2023-01-09T10:00:13;99403.06;;;6.94;100.00
58757;BME280;44527;47.460;19.016;2023-01-09T10:03:29;99397.16;;;6.64;100.00
58757;BME280;44527;47.460;19.016;2023-01-09T10:06:41;99392.81;;;6.78;100.00
58757;BME280;44527;47.460;19.016;2023-01-09T10:12:58;99395.44;;;6.78;100.00
58757;BME280;44527;47.460;19.016;2023-01-09T10:16:31;99387.97;;;6.59;100.00
58757;BME280;44527;47.460;19.016;2023-01-09T10:20:10;99395.09;;;6.82;100.00
58757;BME280;44527;47.460;19.016;2023-01-09T10:29:49;99370.94;;;6.93;100.00
58757;BME280;44527;47.460;19.016;2023-01-09T10:36:35;99357.75;;;6.82;100.00
58757;BME280;44527;47.460;19.016;2023-01-09T10:46:40;99348.62;;;6.89;100.00
58757;BME280;44527;47.460;19.016;2023-01-09T10:49:46;99357.28;;;6.89;100.00
58757;BME280;44527;47.460;19.016;2023-01-09T10:52:54;99358.50;;;6.71;100.00
58757;BME280;44527;47.460;19.016;2023-01-09T10:56:20;99346.37;;;6.70;100.00
58757;BME280;44527;47.460;19.016;2023-01-09T10:59:24;99335.88;;;6.97;100.00
58757;BME280;44527;47.460;19.016;2023-01-09T11:02:30;99332.91;;;6.76;100.00
58757;BME280;44527;47.460;19.016;2023-01-09T11:05:33;99323.03;;;6.94;100.00
58757;BME280;44527;47.460;19.016;2023-01-09T11:08:40;99307.28;;;7.08;100.00
58757;BME280;44527;47.460;19.016;2023-01-09T11:11:43;99305.84;;;7.04;100.00
58757;BME280;44527;47.460;19.016;2023-01-09T11:14:46;99308.88;;;6.98;100.00
58757;BME280;44527;47.460;19.016;2023-01-09T11:17:50;99304.03;;;6.79;100.00
58757;BME280;44527;47.460;19.016;2023-01-09T11:20:53;99296.41;;;6.76;100.00
58757;BME280;44527;47.460;19.016;2023-01-09T11:23:55;99293.72;;;6.65;100.00
58757;BME280;44527;47.460;19.016;2023-01-09T11:27:16;99290.16;;;6.79;100.00
58757;BME280;44527;47.460;19.016;2023-01-09T11:30:25;99294.25;;;6.83;100.00
58757;BME280;44527;47.460;19.016;2023-01-09T11:33:46;99294.47;;;6.93;100.00
58757;BME280;44527;47.460;19.016;2023-01-09T11:36:52;99294.66;;;6.89;100.00
58757;BME280;44527;47.460;19.016;2023-01-09T11:39:57;99290.50;;;7.00;100.00
58757;BME280;44527;47.460;19.016;2023-01-09T11:43:10;99287.75;;;6.88;100.00
58757;BME280;44527;47.460;19.016;2023-01-09T11:46:38;99282.66;;;6.87;100.00
58757;BME280;44527;47.460;19.016;2023-01-09T11:49:41;99282.16;;;7.07;100.00
58757;BME280;44527;47.460;19.016;2023-01-09T11:52:45;99273.16;;;7.11;100.00
58757;BME280;44527;47.460;19.016;2023-01-09T11:56:01;99269.81;;;7.09;100.00
58757;BME280;44527;47.460;19.016;2023-01-09T11:59:13;99273.69;;;7.17;100.00
58757;BME280;44527;47.460;19.016;2023-01-09T12:05:34;99271.69;;;7.33;100.00
58757;BME280;44527;47.460;19.016;2023-01-09T12:12:03;99256.75;;;7.35;100.00
58757;BME280;44527;47.460;19.016;2023-01-09T12:15:52;99250.69;;;7.34;100.00
58757;BME280;44527;47.460;19.016;2023-01-09T12:22:29;99233.56;;;7.30;100.00
58757;BME280;44527;47.460;19.016;2023-01-09T12:26:03;99241.63;;;7.27;100.00
58757;BME280;44527;47.460;19.016;2023-01-09T12:33:08;99250.31;;;7.02;100.00
58757;BME280;44527;47.460;19.016;2023-01-09T12:39:44;99251.97;;;7.03;100.00
58757;BME280;44527;47.460;19.016;2023-01-09T12:43:13;99235.41;;;7.04;100.00
58757;BME280;44527;47.460;19.016;2023-01-09T12:46:23;99225.28;;;7.49;100.00
58757;BME280;44527;47.460;19.016;2023-01-09T12:52:39;99216.56;;;7.62;100.00
58757;BME280;44527;47.460;19.016;2023-01-09T12:56:03;99207.00;;;7.49;100.00
58757;BME280;44527;47.460;19.016;2023-01-09T12:59:41;99210.03;;;7.43;100.00
58757;BME280;44527;47.460;19.016;2023-01-09T13:05:57;99202.38;;;7.29;100.00
58757;BME280;44527;47.460;19.016;2023-01-09T13:09:25;99192.97;;;7.26;100.00
58757;BME280;44527;47.460;19.016;2023-01-09T13:12:34;99184.16;;;7.40;100.00
58757;BME280;44527;47.460;19.016;2023-01-09T13:15:40;99193.47;;;7.31;100.00
58757;BME280;44527;47.460;19.016;2023-01-09T13:21:59;99191.00;;;7.54;100.00
58757;BME280;44527;47.460;19.016;2023-01-09T13:31:46;99197.12;;;7.66;100.00
58757;BME280;44527;47.460;19.016;2023-01-09T13:34:54;99194.75;;;7.50;100.00
58757;BME280;44527;47.460;19.016;2023-01-09T13:37:59;99198.78;;;7.43;100.00
58757;BME280;44527;47.460;19.016;2023-01-09T13:41:13;99208.56;;;7.52;100.00
58757;BME280;44527;47.460;19.016;2023-01-09T13:44:35;99206.22;;;7.36;100.00
58757;BME280;44527;47.460;19.016;2023-01-09T13:47:37;99213.59;;;7.42;100.00
58757;BME280;44527;47.460;19.016;2023-01-09T13:50:40;99210.50;;;7.61;100.00
58757;BME280;44527;47.460;19.016;2023-01-09T13:53:44;99215.84;;;7.59;100.00
58757;BME280;44527;47.460;19.016;2023-01-09T14:03:29;99205.50;;;7.58;100.00
58757;BME280;44527;47.460;19.016;2023-01-09T14:06:34;99221.00;;;7.48;100.00
58757;BME280;44527;47.460;19.016;2023-01-09T14:09:48;99221.53;;;7.41;100.00
58757;BME280;44527;47.460;19.016;2023-01-09T14:12:53;99225.56;;;7.57;100.00
58757;BME280;44527;47.460;19.016;2023-01-09T14:22:28;99217.84;;;7.80;100.00
58757;BME280;44527;47.460;19.016;2023-01-09T14:25:31;99202.13;;;7.69;100.00
58757;BME280;44527;47.460;19.016;2023-01-09T14:28:34;99214.38;;;7.55;100.00
58757;BME280;44527;47.460;19.016;2023-01-09T14:31:36;99222.44;;;7.52;100.00
58757;BME280;44527;47.460;19.016;2023-01-09T14:34:39;99218.09;;;7.40;100.00
58757;BME280;44527;47.460;19.016;2023-01-09T14:37:55;99216.19;;;7.79;100.00
58757;BME280;44527;47.460;19.016;2023-01-09T14:41:37;99210.75;;;7.82;100.00
58757;BME280;44527;47.460;19.016;2023-01-09T14:45:06;99197.16;;;7.53;100.00
58757;BME280;44527;47.460;19.016;2023-01-09T14:48:15;99197.81;;;7.44;100.00
58757;BME280;44527;47.460;19.016;2023-01-09T14:51:19;99195.56;;;7.39;100.00
58757;BME280;44527;47.460;19.016;2023-01-09T14:54:29;99198.78;;;7.67;100.00
58757;BME280;44527;47.460;19.016;2023-01-09T14:57:33;99195.13;;;7.45;100.00
58757;BME280;44527;47.460;19.016;2023-01-09T15:00:36;99196.19;;;7.30;100.00
58757;BME280;44527;47.460;19.016;2023-01-09T15:03:53;99198.06;;;7.65;100.00
58757;BME280;44527;47.460;19.016;2023-01-09T15:07:02;99190.56;;;7.60;100.00
58757;BME280;44527;47.460;19.016;2023-01-09T15:10:06;99190.72;;;7.46;100.00
58757;BME280;44527;47.460;19.016;2023-01-09T15:13:13;99201.72;;;7.38;100.00
58757;BME280;44527;47.460;19.016;2023-01-09T15:16:22;99202.38;;;7.53;100.00
58757;BME280;44527;47.460;19.016;2023-01-09T15:19:26;99204.94;;;7.42;100.00
58757;BME280;44527;47.460;19.016;2023-01-09T15:25:35;99214.66;;;7.40;100.00
58757;BME280;44527;47.460;19.016;2023-01-09T15:28:41;99206.59;;;7.43;100.00
58757;BME280;44527;47.460;19.016;2023-01-09T15:32:06;99207.78;;;7.39;100.00
58757;BME280;44527;47.460;19.016;2023-01-09T15:35:12;99210.19;;;7.29;100.00
58757;BME280;44527;47.460;19.016;2023-01-09T15:38:20;99210.19;;;7.29;100.00
58757;BME280;44527;47.460;19.016;2023-01-09T15:41:25;99206.22;;;7.36;100.00
58757;BME280;44527;47.460;19.016;2023-01-09T15:44:48;99202.03;;;7.33;100.00
58757;BME280;44527;47.460;19.016;2023-01-09T15:47:52;99197.62;;;7.34;100.00
58757;BME280;44527;47.460;19.016;2023-01-09T15:53:59;99193.47;;;7.31;100.00
58757;BME280;44527;47.460;19.016;2023-01-09T16:00:36;99180.31;;;7.33;100.00
58757;BME280;44527;47.460;19.016;2023-01-09T16:03:42;99174.75;;;7.37;100.00
58757;BME280;44527;47.460;19.016;2023-01-09T16:06:48;99173.56;;;7.54;100.00
58757;BME280;44527;47.460;19.016;2023-01-09T16:09:51;99167.22;;;7.70;100.00
58757;BME280;44527;47.460;19.016;2023-01-09T16:12:54;99167.22;;;7.70;100.00
58757;BME280;44527;47.460;19.016;2023-01-09T16:15:57;99158.88;;;7.65;100.00
58757;BME280;44527;47.460;19.016;2023-01-09T16:19:02;99161.41;;;7.66;100.00
58757;BME280;44527;47.460;19.016;2023-01-09T16:22:21;99158.28;;;7.61;100.00
58757;BME280;44527;47.460;19.016;2023-01-09T16:25:30;99165.28;;;7.60;100.00
58757;BME280;44527;47.460;19.016;2023-01-09T16:28:33;99167.00;;;7.49;100.00
58757;BME280;44527;47.460;19.016;2023-01-09T16:31:35;99158.62;;;7.32;100.00
58757;BME280;44527;47.460;19.016;2023-01-09T16:34:40;99161.97;;;7.22;100.00
58757;BME280;44527;47.460;19.016;2023-01-09T16:37:43;99158.22;;;7.26;100.00
58757;BME280;44527;47.460;19.016;2023-01-09T16:41:06;99154.78;;;7.12;100.00
58757;BME280;44527;47.460;19.016;2023-01-09T16:44:27;99141.81;;;7.24;100.00
58757;BME280;44527;47.460;19.016;2023-01-09T16:47:30;99148.72;;;7.25;100.00
58757;BME280;44527;47.460;19.016;2023-01-09T16:50:32;99146.31;;;7.22;100.00
58757;BME280;44527;47.460;19.016;2023-01-09T16:53:34;99151.31;;;7.25;100.00
58757;BME280;44527;47.460;19.016;2023-01-09T16:56:38;99147.34;;;7.19;100.00
58757;BME280;44527;47.460;19.016;2023-01-09T16:59:41;99148.88;;;7.34;100.00
58757;BME280;44527;47.460;19.016;2023-01-09T17:02:44;99142.34;;;7.29;100.00
58757;BME280;44527;47.460;19.016;2023-01-09T17:05:53;99136.12;;;7.43;100.00
58757;BME280;44527;47.460;19.016;2023-01-09T17:08:56;99134.13;;;7.46;100.00
58757;BME280;44527;47.460;19.016;2023-01-09T17:11:59;99133.28;;;7.46;100.00
58757;BME280;44527;47.460;19.016;2023-01-09T17:15:01;99131.25;;;7.38;100.00
58757;BME280;44527;47.460;19.016;2023-01-09T17:18:04;99130.34;;;7.26;100.00
58757;BME280;44527;47.460;19.016;2023-01-09T17:21:18;99142.66;;;7.24;100.00
58757;BME280;44527;47.460;19.016;2023-01-09T17:24:21;99141.03;;;7.34;100.00
58757;BME280;44527;47.460;19.016;2023-01-09T17:27:42;99144.72;;;7.32;100.00
58757;BME280;44527;47.460;19.016;2023-01-09T17:31:05;99144.78;;;7.43;100.00
58757;BME280;44527;47.460;19.016;2023-01-09T17:34:09;99147.37;;;7.43;100.00
58757;BME280;44527;47.460;19.016;2023-01-09T17:37:13;99141.13;;;7.46;100.00
58757;BME280;44527;47.460;19.016;2023-01-09T17:40:19;99140.94;;;7.36;100.00
58757;BME280;44527;47.460;19.016;2023-01-09T17:43:22;99134.00;;;7.48;100.00
58757;BME280;44527;47.460;19.016;2023-01-09T17:46:33;99127.91;;;7.36;100.00
58757;BME280;44527;47.460;19.016;2023-01-09T17:49:36;99110.59;;;7.22;100.00
58757;BME280;44527;47.460;19.016;2023-01-09T17:52:39;99110.59;;;7.35;100.00
58757;BME280;44527;47.460;19.016;2023-01-09T17:55:42;99115.38;;;7.28;100.00
58757;BME280;44527;47.460;19.016;2023-01-09T17:58:44;99113.34;;;7.21;100.00
58757;BME280;44527;47.460;19.016;2023-01-09T18:01:47;99113.12;;;7.24;100.00
58757;BME280;44527;47.460;19.016;2023-01-09T18:04:50;99116.84;;;7.32;100.00
58757;BME280;44527;47.460;19.016;2023-01-09T18:07:52;99107.91;;;7.24;100.00